createdAt,value
2019-04-30T00:00:40.748Z,0.60
2019-04-30T00:03:35.459Z,0.60
2019-04-30T00:06:34.646Z,0.53
2019-04-30T00:09:20.004Z,0.50
2019-04-30T00:12:15.672Z,0.57
2019-04-30T00:15:11.043Z,0.43
2019-04-30T00:18:16.801Z,0.60
2019-04-30T00:21:05.425Z,0.50
2019-04-30T00:24:00.890Z,0.30
2019-04-30T00:26:52.398Z,0.60
2019-04-30T00:29:45.781Z,0.60
2019-04-30T00:32:39.056Z,0.53
2019-04-30T00:35:28.372Z,0.50
2019-04-30T00:38:16.986Z,0.70
2019-04-30T00:41:11.148Z,0.50
2019-04-30T00:43:58.226Z,0.80
2019-04-30T00:46:52.279Z,0.60
2019-04-30T00:49:47.232Z,0.60
2019-04-30T00:52:50.470Z,0.80
2019-04-30T00:55:48.381Z,0.60
2019-04-30T00:58:45.254Z,0.73
2019-04-30T01:01:39.046Z,0.73
2019-04-30T01:04:31.562Z,0.80
2019-04-30T01:07:19.116Z,1.00
2019-04-30T01:10:15.045Z,0.70
2019-04-30T01:13:08.067Z,1.10
2019-04-30T01:16:10.773Z,0.73
2019-04-30T01:18:58.626Z,0.83
2019-04-30T01:21:54.175Z,1.03
2019-04-30T01:24:41.724Z,1.00
2019-04-30T01:27:39.533Z,0.90
2019-04-30T01:30:25.002Z,1.00
2019-04-30T01:33:19.468Z,1.10
2019-04-30T01:36:09.585Z,1.13
2019-04-30T01:39:05.332Z,1.10
2019-04-30T01:41:55.126Z,0.90
2019-04-30T01:44:53.538Z,1.27
2019-04-30T01:47:39.690Z,1.10
2019-04-30T01:50:38.675Z,1.17
2019-04-30T01:53:25.084Z,0.93
2019-04-30T01:56:35.389Z,1.30
2019-04-30T01:59:24.234Z,1.10
2019-04-30T02:02:21.468Z,1.40
2019-04-30T02:05:09.000Z,1.30
2019-04-30T02:08:03.123Z,1.20
2019-04-30T02:10:59.258Z,1.40
2019-04-30T02:13:55.018Z,1.37
2019-04-30T02:16:44.932Z,1.37
2019-04-30T02:19:56.465Z,1.33
2019-04-30T02:22:36.182Z,1.47
2019-04-30T02:25:30.602Z,1.37
2019-04-30T02:28:18.990Z,1.60
2019-04-30T02:31:23.006Z,1.03
2019-04-30T02:34:12.466Z,1.40
2019-04-30T02:37:09.784Z,1.40
2019-04-30T02:39:56.839Z,1.50
2019-04-30T02:42:50.904Z,1.47
2019-04-30T02:45:40.037Z,1.60
2019-04-30T02:48:39.645Z,1.37
2019-04-30T02:51:29.923Z,1.30
2019-04-30T02:54:25.688Z,1.23
2019-04-30T02:57:13.534Z,1.60
2019-04-30T03:00:21.086Z,1.40
2019-04-30T03:03:10.251Z,1.40
2019-04-30T03:06:04.418Z,1.10
2019-04-30T03:08:52.152Z,1.37
2019-04-30T03:11:46.456Z,1.50
2019-04-30T03:14:34.065Z,1.30
2019-04-30T03:17:44.609Z,1.70
2019-04-30T03:20:39.971Z,1.43
2019-04-30T03:23:40.409Z,1.27
2019-04-30T03:26:29.791Z,1.33
2019-04-30T03:29:26.705Z,1.13
2019-04-30T03:32:15.441Z,1.47
2019-04-30T03:35:13.160Z,1.60
2019-04-30T03:38:01.963Z,1.53
2019-04-30T03:40:55.869Z,1.57
2019-04-30T03:43:42.840Z,1.30
2019-04-30T03:46:39.795Z,1.50
2019-04-30T03:49:25.902Z,1.40
2019-04-30T03:52:20.006Z,1.60
2019-04-30T03:55:09.279Z,1.80
2019-04-30T03:58:03.013Z,1.63
2019-04-30T04:00:55.165Z,1.00
2019-04-30T04:04:10.036Z,1.50
2019-04-30T04:07:15.911Z,1.50
2019-04-30T04:10:11.748Z,1.50
2019-04-30T04:12:59.704Z,1.67
2019-04-30T04:15:53.914Z,1.10
2019-04-30T04:18:41.215Z,1.30
2019-04-30T04:21:34.970Z,1.57
2019-04-30T04:24:30.738Z,1.60
2019-04-30T04:27:26.334Z,1.40
2019-04-30T04:30:13.477Z,1.40
2019-04-30T04:33:10.123Z,1.50
2019-04-30T04:35:56.358Z,1.50
2019-04-30T04:38:59.938Z,1.50
2019-04-30T04:41:46.317Z,1.50
2019-04-30T04:44:40.156Z,1.63
2019-04-30T04:47:30.482Z,1.60
2019-04-30T04:50:23.196Z,1.50
2019-04-30T04:53:11.617Z,1.73
2019-04-30T04:56:06.151Z,2.13
2019-04-30T04:58:53.526Z,1.40
2019-04-30T05:01:48.979Z,1.87
2019-04-30T05:04:35.872Z,1.57
2019-04-30T05:07:29.717Z,1.63
2019-04-30T05:10:19.035Z,1.50
2019-04-30T05:13:19.209Z,1.60
2019-04-30T05:16:09.094Z,1.73
2019-04-30T05:19:03.053Z,1.60
2019-04-30T05:21:51.748Z,1.77
2019-04-30T05:24:46.341Z,1.90
2019-04-30T05:27:41.000Z,1.53
2019-04-30T05:30:34.534Z,1.60
2019-04-30T05:33:21.970Z,1.50
2019-04-30T05:36:16.874Z,1.60
2019-04-30T05:39:05.340Z,1.70
2019-04-30T05:42:00.761Z,1.60
2019-04-30T05:44:49.839Z,1.87
2019-04-30T05:47:43.926Z,1.50
2019-04-30T05:50:31.068Z,1.70
2019-04-30T05:53:25.058Z,1.30
2019-04-30T05:56:12.511Z,1.70
2019-04-30T05:59:08.992Z,1.43
2019-04-30T06:01:56.518Z,1.60
2019-04-30T06:04:50.243Z,1.63
2019-04-30T06:07:39.326Z,1.43
2019-04-30T06:10:51.872Z,1.60
2019-04-30T06:13:49.110Z,1.37
2019-04-30T06:16:42.848Z,1.60
2019-04-30T06:19:30.294Z,1.77
2019-04-30T06:22:24.787Z,1.53
2019-04-30T06:25:27.168Z,1.60
2019-04-30T06:28:12.319Z,1.60
2019-04-30T06:31:06.908Z,1.40
2019-04-30T06:34:01.280Z,1.57
2019-04-30T06:36:53.224Z,1.50
2019-04-30T06:39:44.873Z,1.67
2019-04-30T06:42:32.077Z,1.60
2019-04-30T06:45:28.965Z,1.50
2019-04-30T06:48:19.990Z,1.50
2019-04-30T06:51:15.565Z,1.20
2019-04-30T06:54:04.097Z,1.50
2019-04-30T06:57:23.926Z,1.57
2019-04-30T07:00:12.305Z,1.63
2019-04-30T07:03:06.587Z,1.47
2019-04-30T07:06:05.240Z,1.87
2019-04-30T07:09:02.672Z,1.50
2019-04-30T07:11:59.166Z,1.40
2019-04-30T07:14:53.550Z,1.50
2019-04-30T07:17:40.934Z,1.40
2019-04-30T07:20:35.209Z,1.33
2019-04-30T07:23:22.500Z,1.40
2019-04-30T07:26:19.785Z,1.60
2019-04-30T07:29:10.725Z,2.80
2019-04-30T07:32:12.162Z,1.70
2019-04-30T07:35:02.324Z,1.70
2019-04-30T07:38:00.716Z,1.60
2019-04-30T07:40:52.356Z,1.60
2019-04-30T07:43:46.286Z,1.60
2019-04-30T07:46:35.275Z,1.43
2019-04-30T07:49:46.519Z,2.47
2019-04-30T07:52:21.000Z,1.60
2019-04-30T07:55:13.867Z,2.00
2019-04-30T07:58:01.438Z,2.43
2019-04-30T08:00:56.434Z,1.70
2019-04-30T08:03:59.232Z,1.73
2019-04-30T08:06:55.555Z,1.80
2019-04-30T08:09:42.950Z,2.40
2019-04-30T08:12:43.101Z,1.60
2019-04-30T08:15:29.591Z,2.20
2019-04-30T08:18:24.088Z,1.97
2019-04-30T08:21:11.146Z,1.80
2019-04-30T08:24:05.710Z,3.50
2019-04-30T08:26:53.139Z,3.00
2019-04-30T08:29:49.950Z,2.00
2019-04-30T08:32:39.180Z,2.00
2019-04-30T08:35:39.740Z,1.83
2019-04-30T08:38:27.450Z,2.30
2019-04-30T08:41:23.167Z,2.10
2019-04-30T08:44:10.369Z,2.30
2019-04-30T08:47:04.751Z,2.63
2019-04-30T08:49:52.278Z,1.90
2019-04-30T08:52:49.765Z,2.10
2019-04-30T08:55:39.136Z,3.53
2019-04-30T08:58:34.341Z,2.30
2019-04-30T09:01:21.733Z,1.97
2019-04-30T09:04:22.707Z,2.10
2019-04-30T09:07:15.389Z,3.27
2019-04-30T09:10:09.314Z,3.70
2019-04-30T09:12:56.301Z,2.27
2019-04-30T09:15:56.698Z,2.20
2019-04-30T09:18:45.911Z,2.00
2019-04-30T09:21:40.206Z,2.03
2019-04-30T09:24:32.106Z,1.90
2019-04-30T09:27:26.482Z,1.80
2019-04-30T09:30:13.742Z,1.73
2019-04-30T09:33:11.203Z,2.07
2019-04-30T09:35:59.425Z,1.70
2019-04-30T09:39:01.412Z,2.47
2019-04-30T09:41:49.626Z,1.53
2019-04-30T09:44:44.361Z,1.50
2019-04-30T09:47:31.902Z,1.70
2019-04-30T09:50:25.776Z,2.80
2019-04-30T09:53:13.286Z,1.97
2019-04-30T09:56:09.431Z,1.70
2019-04-30T09:58:56.237Z,1.80
2019-04-30T10:01:50.354Z,1.80
2019-04-30T10:04:39.908Z,1.60
2019-04-30T10:07:35.161Z,1.33
2019-04-30T10:10:26.030Z,1.60
2019-04-30T10:13:19.686Z,1.80
2019-04-30T10:16:09.749Z,1.47
2019-04-30T10:19:10.283Z,1.63
2019-04-30T10:21:58.988Z,1.37
2019-04-30T10:24:53.436Z,1.53
2019-04-30T10:27:50.509Z,1.33
2019-04-30T10:30:44.073Z,1.50
2019-04-30T10:33:31.387Z,2.40
2019-04-30T10:36:25.040Z,1.30
2019-04-30T10:39:12.686Z,1.70
2019-04-30T10:42:14.237Z,2.23
2019-04-30T10:45:09.737Z,1.40
2019-04-30T10:48:03.857Z,1.50
2019-04-30T10:50:51.343Z,1.70
2019-04-30T10:53:48.587Z,1.93
2019-04-30T10:56:36.388Z,1.87
2019-04-30T10:59:33.127Z,1.80
2019-04-30T11:02:20.771Z,1.60
2019-04-30T11:05:15.189Z,1.30
2019-04-30T11:08:02.446Z,1.57
2019-04-30T11:10:56.619Z,1.60
2019-04-30T11:13:44.127Z,1.30
2019-04-30T11:16:38.049Z,1.50
2019-04-30T11:19:25.509Z,1.60
2019-04-30T11:22:22.980Z,1.70
2019-04-30T11:25:10.814Z,1.50
2019-04-30T11:28:05.929Z,1.30
2019-04-30T11:31:18.196Z,1.30
2019-04-30T11:34:13.609Z,1.53
2019-04-30T11:37:01.269Z,1.40
2019-04-30T11:39:56.412Z,1.60
2019-04-30T11:42:44.749Z,1.50
2019-04-30T11:45:48.445Z,1.43
2019-04-30T11:48:39.627Z,2.53
2019-04-30T11:51:32.909Z,2.60
2019-04-30T11:54:20.448Z,1.40
2019-04-30T11:57:14.999Z,1.70
2019-04-30T12:00:03.639Z,1.50
2019-04-30T12:02:59.310Z,1.60
2019-04-30T12:05:46.515Z,1.43
2019-04-30T12:09:06.135Z,1.53
2019-04-30T12:11:53.443Z,1.57
2019-04-30T12:14:49.473Z,1.50
2019-04-30T12:17:37.003Z,1.50
2019-04-30T12:20:33.577Z,1.60
2019-04-30T12:23:21.123Z,1.23
2019-04-30T12:26:19.084Z,1.40
2019-04-30T12:29:06.373Z,1.53
2019-04-30T12:32:00.383Z,1.37
2019-04-30T12:34:47.850Z,1.40
2019-04-30T12:37:43.780Z,1.40
2019-04-30T12:40:32.374Z,1.30
2019-04-30T12:43:27.190Z,1.70
2019-04-30T12:46:14.433Z,1.30
2019-04-30T12:49:19.536Z,1.33
2019-04-30T12:52:14.313Z,1.70
2019-04-30T12:55:15.642Z,1.30
2019-04-30T12:58:10.995Z,1.27
2019-04-30T13:01:06.603Z,1.57
2019-04-30T13:03:58.363Z,1.33
2019-04-30T13:06:49.881Z,1.50
2019-04-30T13:09:39.726Z,1.57
2019-04-30T13:12:33.938Z,1.60
2019-04-30T13:15:21.614Z,1.60
2019-04-30T13:18:16.213Z,1.33
2019-04-30T13:21:04.018Z,1.30
2019-04-30T13:24:05.947Z,1.37
2019-04-30T13:27:02.791Z,1.67
2019-04-30T13:30:15.445Z,1.70
2019-04-30T13:33:13.566Z,1.43
2019-04-30T13:36:08.767Z,1.20
2019-04-30T13:38:59.402Z,1.37
2019-04-30T13:42:01.651Z,1.57
2019-04-30T13:44:49.359Z,1.50
2019-04-30T13:47:43.378Z,1.23
2019-04-30T13:50:39.041Z,1.13
2019-04-30T13:53:33.649Z,1.40
2019-04-30T13:56:20.838Z,1.60
2019-04-30T13:59:15.292Z,1.63
2019-04-30T14:02:05.556Z,1.33
2019-04-30T14:05:16.726Z,1.40
2019-04-30T14:08:17.765Z,1.50
2019-04-30T14:11:13.985Z,2.27
2019-04-30T14:14:01.386Z,1.50
2019-04-30T14:16:55.508Z,1.33
2019-04-30T14:19:42.601Z,1.40
2019-04-30T14:22:36.857Z,1.67
2019-04-30T14:25:24.851Z,1.20
2019-04-30T14:28:19.113Z,1.50
2019-04-30T14:31:06.944Z,1.60
2019-04-30T14:34:01.212Z,1.30
2019-04-30T14:36:49.281Z,1.43
2019-04-30T14:39:43.882Z,2.13
2019-04-30T14:42:40.190Z,1.30
2019-04-30T14:45:45.322Z,1.60
2019-04-30T14:48:35.385Z,1.50
2019-04-30T14:51:30.380Z,1.53
2019-04-30T14:54:32.121Z,1.77
2019-04-30T14:57:27.602Z,1.30
2019-04-30T15:00:32.570Z,1.40
2019-04-30T15:03:32.522Z,1.40
2019-04-30T15:06:20.060Z,1.50
2019-04-30T15:09:16.527Z,1.47
2019-04-30T15:12:04.603Z,1.43
2019-04-30T15:15:00.113Z,1.40
2019-04-30T15:17:53.728Z,1.40
2019-04-30T15:20:49.785Z,1.87
2019-04-30T15:23:46.103Z,1.30
2019-04-30T15:26:41.308Z,1.33
2019-04-30T15:29:29.200Z,2.33
2019-04-30T15:32:23.771Z,1.43
2019-04-30T15:35:13.516Z,1.37
2019-04-30T15:38:09.491Z,1.37
2019-04-30T15:40:58.578Z,1.40
2019-04-30T15:43:52.464Z,2.30
2019-04-30T15:46:40.072Z,1.60
2019-04-30T15:49:36.715Z,1.47
2019-04-30T15:52:24.051Z,1.33
2019-04-30T15:55:25.570Z,1.50
2019-04-30T15:58:20.154Z,1.33
2019-04-30T16:01:15.762Z,1.40
2019-04-30T16:04:03.800Z,1.60
2019-04-30T16:06:58.466Z,1.20
2019-04-30T16:09:48.592Z,1.60
2019-04-30T16:13:02.364Z,1.50
2019-04-30T16:15:49.867Z,1.60
2019-04-30T16:18:51.154Z,1.57
2019-04-30T16:21:38.367Z,1.50
2019-04-30T16:24:32.490Z,1.43
2019-04-30T16:27:19.819Z,1.63
2019-04-30T16:30:13.866Z,1.40
2019-04-30T16:33:01.258Z,1.60
2019-04-30T16:35:55.668Z,1.43
2019-04-30T16:38:43.254Z,1.47
2019-04-30T16:41:40.518Z,1.60
2019-04-30T16:44:26.212Z,1.20
2019-04-30T16:47:20.421Z,1.20
2019-04-30T16:50:09.018Z,2.43
2019-04-30T16:53:03.617Z,1.40
2019-04-30T16:55:53.433Z,1.20
2019-04-30T16:59:04.234Z,1.40
2019-04-30T17:01:57.843Z,1.40
2019-04-30T17:04:54.271Z,1.43
2019-04-30T17:07:42.859Z,1.43
2019-04-30T17:10:53.768Z,1.40
2019-04-30T17:13:42.643Z,1.37
2019-04-30T17:16:39.140Z,1.53
2019-04-30T17:19:26.488Z,1.40
2019-04-30T17:22:20.859Z,2.80
2019-04-30T17:25:08.177Z,1.87
2019-04-30T17:28:02.816Z,1.40
2019-04-30T17:30:50.117Z,1.70
2019-04-30T17:33:43.620Z,1.40
2019-04-30T17:36:30.689Z,1.57
2019-04-30T17:39:25.950Z,1.60
2019-04-30T17:42:23.338Z,1.83
2019-04-30T17:45:21.461Z,1.60
2019-04-30T17:48:14.902Z,1.60
2019-04-30T17:51:09.534Z,1.50
2019-04-30T17:54:15.700Z,1.47
2019-04-30T17:57:10.675Z,1.47
2019-04-30T18:00:16.913Z,1.57
2019-04-30T18:03:05.114Z,1.57
2019-04-30T18:05:52.404Z,1.77
2019-04-30T18:08:46.518Z,1.57
2019-04-30T18:11:33.723Z,1.70
2019-04-30T18:14:28.671Z,1.90
2019-04-30T18:17:15.750Z,2.57
2019-04-30T18:20:14.103Z,1.50
2019-04-30T18:23:02.983Z,1.63
2019-04-30T18:26:01.271Z,1.70
2019-04-30T18:28:48.411Z,1.50
2019-04-30T18:31:42.655Z,1.63
2019-04-30T18:34:29.799Z,1.57
2019-04-30T18:37:24.043Z,2.83
2019-04-30T18:40:11.283Z,1.70
2019-04-30T18:43:06.405Z,1.70
2019-04-30T18:45:53.647Z,2.00
2019-04-30T18:48:49.702Z,1.97
2019-04-30T18:51:42.081Z,1.83
2019-04-30T18:54:32.893Z,2.07
2019-04-30T18:57:20.379Z,1.87
2019-04-30T19:00:14.126Z,2.33
2019-04-30T19:03:08.669Z,1.63
2019-04-30T19:06:05.346Z,1.90
2019-04-30T19:09:09.618Z,1.73
2019-04-30T19:12:11.749Z,1.97
2019-04-30T19:15:02.986Z,2.10
2019-04-30T19:18:16.687Z,1.97
2019-04-30T19:21:05.682Z,1.60
2019-04-30T19:24:02.715Z,1.70
2019-04-30T19:26:52.781Z,1.43
2019-04-30T19:29:46.663Z,2.00
2019-04-30T19:32:33.873Z,1.87
2019-04-30T19:35:28.723Z,2.00
2019-04-30T19:38:15.873Z,1.80
2019-04-30T19:41:11.171Z,3.37
2019-04-30T19:44:01.311Z,2.17
2019-04-30T19:46:56.284Z,1.70
2019-04-30T19:49:43.849Z,1.90
2019-04-30T19:52:37.985Z,1.77
2019-04-30T19:55:28.610Z,1.60
2019-04-30T19:58:29.429Z,2.00
2019-04-30T20:01:11.883Z,1.63
2019-04-30T20:04:07.351Z,1.70
2019-04-30T20:07:02.462Z,1.60
2019-04-30T20:10:02.798Z,2.30
2019-04-30T20:12:45.499Z,1.63
2019-04-30T20:15:40.255Z,1.73
2019-04-30T20:18:29.205Z,1.80
2019-04-30T20:21:31.884Z,2.27
2019-04-30T20:24:15.991Z,2.07
2019-04-30T20:27:10.798Z,2.10
2019-04-30T20:29:59.244Z,2.03
2019-04-30T20:32:54.208Z,1.60
2019-04-30T20:35:41.871Z,2.60
2019-04-30T20:38:43.055Z,1.67
2019-04-30T20:41:31.836Z,2.03
2019-04-30T20:44:26.329Z,1.83
2019-04-30T20:47:13.380Z,1.70
2019-04-30T20:50:07.819Z,2.03
2019-04-30T20:53:02.459Z,1.83
2019-04-30T20:55:59.249Z,1.60
2019-04-30T20:58:57.230Z,1.90
2019-04-30T21:01:42.036Z,1.70
2019-04-30T21:04:29.236Z,2.30
2019-04-30T21:07:23.342Z,1.80
2019-04-30T21:10:39.734Z,1.70
2019-04-30T21:13:34.307Z,1.80
2019-04-30T21:16:24.530Z,1.90
2019-04-30T21:22:09.547Z,1.63
2019-04-30T21:25:03.920Z,1.50
2019-04-30T21:27:51.319Z,1.80
2019-04-30T21:30:46.127Z,1.43
2019-04-30T21:33:34.917Z,1.80
2019-04-30T21:36:30.443Z,1.57
2019-04-30T21:39:19.980Z,1.57
2019-04-30T21:42:13.753Z,1.70
2019-04-30T21:45:01.193Z,1.43
2019-04-30T21:47:56.667Z,1.70
2019-04-30T21:50:44.146Z,1.47
2019-04-30T21:53:39.582Z,1.50
2019-04-30T21:56:27.370Z,1.50
2019-04-30T21:59:24.422Z,1.20
2019-04-30T22:02:10.987Z,1.73
2019-04-30T22:05:05.158Z,1.50
2019-04-30T22:07:59.759Z,1.70
2019-04-30T22:11:01.595Z,1.60
2019-04-30T22:13:49.427Z,1.50
2019-04-30T22:16:43.507Z,1.43
2019-04-30T22:19:30.921Z,1.40
2019-04-30T22:22:24.801Z,1.47
2019-04-30T22:25:29.200Z,1.53
2019-04-30T22:28:24.350Z,1.50
2019-04-30T22:31:11.344Z,1.20
2019-04-30T22:34:05.342Z,1.30
2019-04-30T22:36:52.561Z,1.00
2019-04-30T22:39:54.061Z,1.30
2019-04-30T22:42:41.548Z,1.07
2019-04-30T22:45:38.264Z,1.10
2019-04-30T22:49:03.080Z,1.60
2019-04-30T22:51:29.027Z,1.37
2019-04-30T22:54:16.122Z,1.10
2019-04-30T22:57:10.804Z,1.40
2019-04-30T22:59:58.635Z,1.00
2019-04-30T23:02:59.464Z,1.10
2019-04-30T23:05:46.963Z,1.30
2019-04-30T23:08:41.466Z,1.07
2019-04-30T23:11:28.724Z,0.93
2019-04-30T23:14:30.244Z,1.00
2019-04-30T23:17:17.444Z,1.13
2019-04-30T23:20:13.882Z,1.13
2019-04-30T23:23:01.359Z,1.33
2019-04-30T23:25:55.796Z,1.30
2019-04-30T23:28:44.717Z,0.83
2019-04-30T23:31:39.057Z,0.73
2019-04-30T23:34:25.976Z,1.20
2019-04-30T23:37:19.482Z,1.33
2019-04-30T23:40:29.553Z,1.27
2019-04-30T23:43:23.800Z,1.57
2019-04-30T23:46:11.122Z,1.23
2019-04-30T23:49:04.960Z,1.07
2019-04-30T23:51:52.497Z,1.20
2019-04-30T23:54:47.294Z,0.93
2019-04-30T23:57:34.820Z,1.07
